Station: Moruya Airport

  Atmospheric Gas Attenuation - ITU Rec 676-11   --------------- db/100km ---------------
Date Time Temp RH % AH g/m3 Dew Point Wind Direction Speed kph Gust kph Barometer mB Rainfall Since 9am 24GHz 47GHz 76GHz 122GHz 134GHz 241GHz
23 09:40 12.2 70 7.55 6.9 7 11 1026.4 0 17.4 25.2 36.9 96.6 87.5 300.0
23 09:30 11.5 71 7.33 6.4 6 9 1026.5 0 17.0 25.0 36.4 95.1 85.4 292.6
23 09:20 10.7 77 7.56 6.8 7 9 1026.5 0 17.5 25.6 37.7 98.6 89.4 306.3
23 09:10 10 81 7.61 6.9 6 7 1026.4 0 17.6 25.9 38.2 100.0 90.8 311.4
23 09:00 9.5 85 7.74 7.1 0 7 1026.4 0 17.9 26.2 39.0 102.1 93.2 319.6
23 08:50 9.1 90 7.99 7.5 0 0 1026.4 0 18.5 26.8 40.3 105.4 97.2 333.3
23 08:40 8.6 93 7.99 7.5 0 0 1026.3 0 18.5 26.9 40.5 106.1 97.8 335.5
23 08:30 7.6 94 7.58 6.7 0 0 1026.2 0 17.7 26.5 39.3 102.8 93.3 319.6
23 08:20 7.6 95 7.66 6.9 0 0 1026.1 0 17.9 26.7 39.6 103.7 94.4 323.5
23 08:10 6.2 95 6.99 5.5 0 0 1026.1 0 16.5 25.9 37.5 97.9 86.7 296.3
23 08:00 5.4 95 6.63 4.7 0 0 1026.1 0 15.7 25.6 36.3 94.8 82.6 281.7
23 07:50 5.1 95 6.5 4.4 0 0 1026.1 0 15.5 25.4 35.9 93.7 81.1 276.5
23 07:40 4.2 95 6.13 3.5 0 0 1026 0 14.7 25.1 34.7 90.7 76.9 261.6
23 07:30 3.8 95 5.96 3.1 7 9 1025.9 0 14.3 24.9 34.2 89.2 74.9 254.7
23 07:20 3.5 95 5.85 2.8 7 9 1025.8 0 14.1 24.8 33.9 88.3 73.7 250.3
23 07:10 2.9 94 5.56 2 6 6 1025.8 0 13.5 24.4 32.9 85.8 70.3 238.2
23 07:00 3.1 94 5.63 2.2 4 7 1025.7 0 13.7 24.5 33.1 86.3 71.0 241.0
23 06:50 2.6 94 5.45 1.7 2 4 1025.6 0 13.3 24.3 32.6 84.8 69.0 233.8
23 06:40 3.3 94 5.71 2.4 6 6 1025.4 0 13.8 24.6 33.4 86.9 71.9 244.1
23 06:30 3.5 94 5.79 2.6 6 7 1025.3 0 14.0 24.6 33.6 87.6 72.8 247.3
23 06:20 3.4 94 5.75 2.5 7 7 1025.3 0 13.9 24.6 33.5 87.3 72.4 245.7
23 06:10 3.3 94 5.71 2.4 7 7 1025.3 0 13.8 24.6 33.4 86.9 71.9 244.1
23 06:00 4 94 5.98 3.1 0 0 1025.2 0 14.4 24.8 34.2 89.1 75.0 254.9
23 05:50 4.4 95 6.21 3.7 7 7 1025.1 0 14.9 25.1 35.0 91.2 77.7 264.6
23 05:40 4 95 6.05 3.3 9 9 1025.1 0 14.5 24.9 34.5 89.9 75.9 258.2
23 05:30 3.6 94 5.82 2.7 6 6 1025 0 14.1 24.7 33.7 87.8 73.1 248.4
23 05:20 3.6 94 5.82 2.7 0 0 1024.9 0 14.1 24.7 33.7 87.8 73.1 248.4
23 05:10 3.7 94 5.86 2.8 4 4 1024.7 0 14.1 24.7 33.8 88.1 73.6 249.9
23 05:00 3.4 94 5.75 2.5 6 7 1024.7 0 13.9 24.6 33.4 87.2 72.3 245.6
23 04:50 3.8 94 5.9 2.9 6 6 1024.6 0 14.2 24.7 33.9 88.4 74.0 251.5
23 04:40 4 94 5.98 3.1 7 7 1024.5 0 14.4 24.8 34.1 89.1 74.9 254.7
23 04:30 3.8 94 5.9 2.9 4 9 1024.5 0 14.2 24.7 33.9 88.4 74.0 251.5
23 04:20 3.9 94 5.94 3 0 0 1024.5 0 14.3 24.8 34.0 88.7 74.5 253.1
23 04:10 2.8 93 5.46 1.8 0 0 1024.5 0 13.3 24.3 32.5 84.6 68.9 233.5
23 04:00 2.6 93 5.39 1.6 0 0 1024.4 0 13.2 24.2 32.3 84.1 68.1 230.7
23 03:50 2.7 93 5.42 1.7 0 0 1024.3 0 13.2 24.2 32.4 84.3 68.4 231.8
23 03:40 3.7 93 5.8 2.7 0 0 1024.4 0 14.0 24.6 33.5 87.4 72.7 247.0
23 03:30 3.5 93 5.72 2.5 0 0 1024.4 0 13.8 24.5 33.3 86.7 71.8 243.8
23 03:20 3.9 94 5.94 3 0 0 1024.4 0 14.3 24.8 34.0 88.7 74.5 253.1
23 03:10 4.2 94 6.06 3.3 0 0 1024.4 0 14.5 24.9 34.4 89.7 75.8 257.9
23 03:00 4.1 94 6.02 3.2 0 0 1024.5 0 14.5 24.8 34.3 89.4 75.4 256.3
23 02:50 4.2 93 6 3.2 4 6 1024.5 0 14.4 24.8 34.1 89.1 75.0 255.0
23 02:40 3.9 93 5.88 2.9 0 0 1024.5 0 14.2 24.7 33.8 88.1 73.6 250.2
23 02:30 4.5 93 6.12 3.5 0 0 1024.6 0 14.7 24.9 34.5 90.1 76.4 259.8
23 02:20 4.3 93 6.04 3.3 0 0 1024.5 0 14.5 24.8 34.3 89.4 75.4 256.6
23 02:10 4.4 93 6.08 3.4 0 0 1024.4 0 14.6 24.8 34.4 89.7 75.9 258.2
23 02:00 4.5 93 6.12 3.5 0 0 1024.3 0 14.7 24.9 34.5 90.0 76.3 259.8
23 01:50 5.1 93 6.37 4.1 0 0 1024.4 0 15.2 25.1 35.3 92.1 79.2 269.8
23 01:40 5.2 93 6.41 4.2 0 0 1024.4 0 15.3 25.2 35.4 92.5 79.6 271.4
23 01:30 4.8 93 6.24 3.8 0 0 1024.4 0 14.9 25.0 34.9 91.0 77.7 264.6
23 01:20 4.8 93 6.24 3.8 0 0 1024.5 0 14.9 25.0 34.9 91.0 77.7 264.6
23 01:10 5.6 93 6.58 4.6 0 0 1024.5 0 15.6 25.4 35.9 93.9 81.6 278.2
23 01:00 5.3 93 6.45 4.3 0 0 1024.5 0 15.3 25.2 35.5 92.8 80.1 273.0
23 00:50 5.5 94 6.61 4.6 0 0 1024.4 0 15.7 25.4 36.1 94.3 82.1 280.0
23 00:40 5.8 94 6.74 4.9 0 0 1024.4 0 15.9 25.6 36.5 95.4 83.5 285.2
23 00:30 5.6 93 6.58 4.6 2 6 1024.5 0 15.6 25.4 35.9 93.9 81.6 278.2
23 00:20 5.4 93 6.49 4.4 4 6 1024.4 0 15.4 25.3 35.6 93.1 80.5 274.5
23 00:10 5.5 93 6.54 4.5 0 0 1024.6 0 15.5 25.3 35.8 93.6 81.1 276.6
23 00:00 5.9 93 6.71 4.9 0 0 1024.6 0 15.9 25.5 36.3 95.0 83.0 283.4
22 23:50 5.8 93 6.67 4.8 0 0 1024.6 0 15.8 25.5 36.2 94.7 82.6 281.9
22 23:40 5.9 93 6.71 4.9 0 0 1024.6 0 15.9 25.5 36.3 95.0 83.0 283.4
22 23:30 6.2 94 6.92 5.3 6 6 1024.5 0 16.3 25.8 37.1 97.0 85.6 292.5
22 23:20 6.3 94 6.96 5.4 7 7 1024.5 0 16.4 25.8 37.2 97.3 86.0 294.0
22 23:10 6.2 93 6.84 5.2 0 0 1024.5 0 16.1 25.6 36.7 96.1 84.5 288.6
22 23:00 5.9 93 6.71 4.9 0 0 1024.5 0 15.9 25.5 36.3 95.0 83.0 283.4
22 22:50 6.3 93 6.89 5.3 0 0 1024.6 0 16.3 25.7 36.9 96.5 85.1 290.7
22 22:40 5.9 93 6.71 4.9 0 0 1024.6 0 15.9 25.5 36.3 95.0 83.0 283.4
22 22:30 5.9 93 6.71 4.9 0 0 1024.6 0 15.9 25.5 36.3 95.0 83.0 283.4
22 22:20 6.3 93 6.89 5.3 0 0 1024.5 0 16.3 25.7 36.9 96.5 85.1 290.6
22 22:10 6.3 93 6.89 5.3 0 0 1024.5 0 16.3 25.7 36.9 96.5 85.1 290.6
22 22:00 6.4 93 6.93 5.4 2 6 1024.5 0 16.3 25.7 37.0 96.8 85.5 292.2
22 21:50 6.3 92 6.81 5.1 0 0 1024.4 0 16.1 25.5 36.6 95.6 84.0 286.7
22 21:40 6.7 93 7.07 5.7 0 0 1024.3 0 16.6 25.9 37.5 98.0 87.1 297.8
22 21:30 6.4 92 6.86 5.2 0 0 1024.2 0 16.2 25.6 36.7 96.0 84.5 288.7
22 21:20 5.8 92 6.59 4.6 6 6 1024.2 0 15.6 25.3 35.9 93.7 81.5 277.9
22 21:10 6.5 92 6.9 5.3 0 0 1024.1 0 16.3 25.6 36.8 96.3 85.0 290.3
22 21:00 7 92 7.13 5.8 0 0 1024.1 0 16.7 25.9 37.6 98.3 87.6 299.5
22 20:50 7.1 92 7.18 5.9 0 0 1024 0 16.8 25.9 37.7 98.7 88.1 301.5
22 20:40 7.7 92 7.46 6.5 0 0 1023.9 0 17.4 26.2 38.6 101.1 91.3 312.7
22 20:30 7.4 91 7.24 6 0 0 1023.8 0 17.0 25.9 37.8 99.0 88.6 303.2
22 20:20 7.5 91 7.29 6.1 0 0 1023.7 0 17.1 26.0 38.0 99.4 89.2 305.2
22 20:10 7.8 92 7.51 6.6 0 0 1023.7 0 17.5 26.3 38.8 101.5 91.9 314.7
22 20:00 8.1 91 7.58 6.7 0 0 1023.6 0 17.7 26.3 38.9 101.9 92.5 316.8
22 19:50 7.7 91 7.38 6.3 0 0 1023.6 0 17.2 26.1 38.3 100.1 90.2 308.8
22 19:40 7.6 90 7.25 6.1 0 0 1023.6 0 17.0 25.9 37.8 98.8 88.5 302.9
22 19:30 8.2 90 7.54 6.7 0 0 1023.5 0 17.6 26.2 38.7 101.3 91.8 314.5
22 19:20 9.5 91 8.29 8.1 0 0 1023.3 0 19.1 27.0 41.2 107.9 100.6 345.4
22 19:10 9.5 91 8.29 8.1 0 0 1023.2 0 19.1 27.0 41.2 107.9 100.6 345.3
22 19:00 9.6 91 8.34 8.2 7 7 1023.3 0 19.2 27.1 41.3 108.4 101.1 347.4
22 18:50 9.9 90 8.41 8.3 6 7 1023.2 0 19.4 27.1 41.5 108.7 101.7 349.4
22 18:40 9.8 89 8.26 8.1 6 6 1023.1 0 19.0 26.9 40.9 107.2 99.7 342.5
22 18:30 9.7 88 8.11 7.8 6 9 1023 0 18.7 26.7 40.3 105.6 97.8 335.7
22 18:20 10.1 87 8.23 8 7 9 1023 0 19.0 26.8 40.6 106.4 98.9 339.7
22 18:10 10.5 85 8.25 8.1 0 0 1022.9 0 19.0 26.7 40.5 106.1 98.7 338.9
22 18:00 11.1 83 8.36 8.3 0 6 1022.8 0 19.2 26.7 40.6 106.5 99.4 341.6
22 17:50 11.9 82 8.69 8.9 6 6 1022.8 0 19.9 27.0 41.6 109.0 102.9 353.8
22 17:40 12.3 80 8.69 9 6 6 1022.7 0 19.8 26.8 41.4 108.5 102.3 352.0
22 17:30 13.4 78 9.07 9.6 7 9 1022.5 0 20.6 27.1 42.3 111.1 106.0 365.0
22 17:20 14.6 77 9.64 10.6 9 9 1022.5 0 21.8 27.7 44.0 115.7 112.1 386.3
22 17:10 15.2 77 9.99 11.2 11 13 1022.4 0 22.5 28.1 45.2 118.6 116.0 400.0

Last Refresh: 23-Jul-2024 09:27:48

Bureau of Meteorology